Terminal Aerodrome Forecast
Issued by NWS

Home | Current Version | Previous Version | Text Only | Print | Product List | Glossary On
Versions: 1 2 3 4 5 6 7 8 9 10 11 12 13 14 15 16 17 18 19 20 21 22 23 24 25 26 27 28 29 30 31 32 33 34 35 36 37 38 39 40 41 42 43 44
000
FTUS44 KHGX 012347
TAFCXO
TAF
KCXO 012347Z 0200/0224 14009KT P6SM FEW040
     FM020200 15004KT P6SM SCT250
     FM020500 16004KT P6SM SCT030 SCT250
      TEMPO 0208/0210 BKN012
     FM021000 14003KT 4SM BR BKN007
      TEMPO 0213/0215 P6SM NSW BKN020
     FM021500 14009KT P6SM VCSH SCT035 SCT250
      TEMPO 0218/0222 TSRA BKN040CB=

USA.gov is the U.S. government's official web portal to all federal, state and local government web resources and services.